Time;durP1;ratioP1;P1;durP2;ratioP2;P2;SDS_P1;SDS_P2;PMS_P1;PMS_P2;Temp;Humidity;BMP_temperature;BMP_pressure;BME280_temperature;BME280_humidity;BME280_pressure;Samples;Min_cycle;Max_cycle;Signal;HPM_P1;HPM_P2
2021/10/20 00:00:19;;;;;;;;;;;;;;;;;;4858617;29;19936;-91
2021/10/20 00:03:02;;;;;;;;;;;;;;;;;;4843193;29;20306;-91
2021/10/20 00:05:48;;;;;;;;;;;;;;;;;;4855105;29;19939;-89
2021/10/20 00:08:25;;;;;;;;;;;;;;;;;;4843121;29;19929;-89
2021/10/20 00:11:29;;;;;;;;;;;;;;;;;;4855422;29;19932;-90
2021/10/20 00:13:59;;;;;;;;;;;;;;;;;;4855323;29;19928;-89
2021/10/20 00:16:29;;;;;;;;;;;;;;;;;;4840966;29;20446;-87
2021/10/20 00:18:58;;;;;;;;;;;;;;;;;;4844572;29;19928;-88
2021/10/20 00:21:28;;;;;;;;;;;;;;;;;;4840325;29;19932;-88
2021/10/20 00:23:56;;;;;;;;;;;;;;;;;;4835739;29;19932;-88
2021/10/20 00:26:25;;;;;;;;;;;;;;;;;;4840282;29;19943;-90
2021/10/20 00:28:56;;;;;;;;;;;;;;;;;;4838094;29;19939;-87
2021/10/20 00:31:26;;;;;;;;;;;;;;;;;;4860977;29;20410;-85
2021/10/20 00:33:55;;;;;;;;;;;;;;;;;;4858694;29;19932;-90
2021/10/20 00:36:26;;;;;;;;;;;;;;;;;;4840803;29;19928;-90
2021/10/20 00:38:55;;;;;;;;;;;;;;;;;;4848017;29;19929;-89
2021/10/20 00:41:28;;;;;;;;;;;;;;;;;;4856229;29;19932;-90
2021/10/20 00:43:56;;;;;;;;;;;;;;;;;;4845249;29;19936;-86
2021/10/20 00:46:31;;;;;;;;;;;;;;;;;;4842888;29;19928;-90
2021/10/20 00:49:00;;;;;;;;;;;;;;;;;;4855597;29;19935;-89
2021/10/20 00:51:31;;;;;;;;;;;;;;;;;;4842191;29;19944;-89
2021/10/20 00:54:00;;;;;;;;;;;;;;;;;;4851320;29;19935;-89
2021/10/20 00:56:32;;;;;;;;;;;;;;;;;;4843043;29;19928;-87
2021/10/20 00:59:03;;;;;;;;;;;;;;;;;;4841457;29;19929;-89
2021/10/20 01:01:33;;;;;;;;;;;;;;;;;;4841833;29;20198;-88
2021/10/20 01:04:02;;;;;;;;;;;;;;;;;;4845076;29;19928;-92
2021/10/20 01:06:31;;;;;;;;;;;;;;;;;;4840127;29;20319;-86
2021/10/20 01:08:59;;;;;;;;;;;;;;;;;;4846285;29;19928;-88
2021/10/20 01:11:28;;;;;;;;;;;;;;;;;;4847388;29;19939;-91
2021/10/20 01:14:00;;;;;;;;;;;;;;;;;;4847444;29;20406;-88
2021/10/20 01:16:29;;;;;;;;;;;;;;;;;;4840203;29;19928;-90
2021/10/20 01:18:59;;;;;;;;;;;;;;;;;;4848913;29;19935;-89
2021/10/20 01:21:29;;;;;;;;;;;;;;;;;;4863466;29;19943;-90
2021/10/20 01:23:57;;;;;;;;;;;;;;;;;;4865411;29;19924;-92
2021/10/20 01:26:26;;;;;;;;;;;;;;;;;;4875226;29;19911;-92
2021/10/20 01:28:55;;;;;;;;;;;;;;;;;;4859881;29;19932;-91
2021/10/20 01:31:23;;;;;;;;;;;;;;;;;;4841147;29;19929;-92
2021/10/20 01:33:52;;;;;;;;;;;;;;;;;;4852342;29;19928;-87
2021/10/20 01:36:21;;;;;;;;;;;;;;;;;;4849642;29;19928;-89
2021/10/20 01:38:52;;;;;;;;;;;;;;;;;;4849746;29;19936;-87
2021/10/20 01:41:21;;;;;;;;;;;;;;;;;;4833144;29;20322;-88
2021/10/20 01:43:50;;;;;;;;;;;;;;;;;;4872366;29;20318;-89
2021/10/20 01:46:19;;;;;;;;;;;;;;;;;;4850538;29;19951;-90
2021/10/20 01:48:48;;;;;;;;;;;;;;;;;;4848829;29;19932;-89
2021/10/20 01:51:16;;;;;;;;;;;;;;;;;;4842703;29;19935;-87
2021/10/20 01:53:45;;;;;;;;;;;;;;;;;;4842414;29;20326;-89
2021/10/20 01:56:15;;;;;;;;;;;;;;;;;;4847101;29;19927;-91
2021/10/20 01:58:44;;;;;;;;;;;;;;;;;;4842378;29;20010;-93
2021/10/20 02:01:12;;;;;;;;;;;;;;;;;;4839395;29;19928;-89
2021/10/20 02:03:41;;;;;;;;;;;;;;;;;;4859723;29;19940;-88
2021/10/20 02:06:11;;;;;;;;;;;;;;;;;;4852232;29;19928;-91
2021/10/20 02:08:41;;;;;;;;;;;;;;;;;;4843147;29;20387;-88
2021/10/20 02:11:09;;;;;;;;;;;;;;;;;;4866206;29;19938;-90
2021/10/20 02:13:39;;;;;;;;;;;;;;;;;;4886017;29;19928;-92
2021/10/20 02:16:08;;;;;;;;;;;;;;;;;;4864812;29;20480;-90
2021/10/20 02:18:36;;;;;;;;;;;;;;;;;;4867892;29;19926;-93
2021/10/20 02:21:05;;;;;;;;;;;;;;;;;;4862577;29;19928;-92
2021/10/20 02:23:33;;;;;;;;;;;;;;;;;;4867371;29;19929;-89
2021/10/20 02:26:03;;;;;;;;;;;;;;;;;;4846958;29;19928;-86
2021/10/20 02:28:31;;;;;;;;;;;;;;;;;;4845742;29;20403;-87
2021/10/20 02:31:01;;;;;;;;;;;;;;;;;;4849428;29;19928;-88
2021/10/20 02:33:30;;;;;;;;;;;;;;;;;;4836635;29;20395;-87
2021/10/20 02:35:59;;;;;;;;;;;;;;;;;;4852522;29;19928;-88
2021/10/20 02:38:27;;;;;;;;;;;;;;;;;;4865835;29;20418;-88
2021/10/20 02:40:55;;;;;;;;;;;;;;;;;;4838156;29;19935;-85
2021/10/20 02:43:24;;;;;;;;;;;;;;;;;;4844980;29;20387;-87
2021/10/20 02:45:53;;;;;;;;;;;;;;;;;;4842087;29;19931;-91
2021/10/20 02:48:23;;;;;;;;;;;;;;;;;;4845278;29;19929;-88
2021/10/20 02:50:51;;;;;;;;;;;;;;;;;;4849063;29;20292;-90
2021/10/20 02:53:19;;;;;;;;;;;;;;;;;;4855111;29;19928;-91
2021/10/20 02:55:48;;;;;;;;;;;;;;;;;;4863316;29;19948;-88
2021/10/20 02:58:16;;;;;;;;;;;;;;;;;;4856700;29;19929;-86
2021/10/20 03:00:44;;;;;;;;;;;;;;;;;;4845272;29;19936;-88
2021/10/20 03:03:13;;;;;;;;;;;;;;;;;;4855079;29;19948;-89
2021/10/20 03:05:43;;;;;;;;;;;;;;;;;;4844584;29;19928;-90
2021/10/20 03:08:12;;;;;;;;;;;;;;;;;;4846640;29;20211;-88
2021/10/20 03:10:40;;;;;;;;;;;;;;;;;;4843820;29;19935;-89
2021/10/20 03:13:09;;;;;;;;;;;;;;;;;;4846028;29;19936;-89
2021/10/20 03:15:37;;;;;;;;;;;;;;;;;;4859457;29;20311;-88
2021/10/20 03:18:05;;;;;;;;;;;;;;;;;;4857556;29;20300;-89
2021/10/20 03:20:34;;;;;;;;;;;;;;;;;;4839278;29;20310;-89
2021/10/20 03:23:03;;;;;;;;;;;;;;;;;;4843091;29;19959;-92
2021/10/20 03:25:32;;;;;;;;;;;;;;;;;;4846037;29;20295;-87
2021/10/20 03:28:00;;;;;;;;;;;;;;;;;;4841738;29;19928;-90
2021/10/20 03:30:28;;;;;;;;;;;;;;;;;;4844054;29;19940;-90
2021/10/20 03:32:57;;;;;;;;;;;;;;;;;;4861713;29;19928;-90
2021/10/20 03:35:26;;;;;;;;;;;;;;;;;;4847105;29;20299;-90
2021/10/20 03:37:54;;;;;;;;;;;;;;;;;;4845083;29;19928;-89
2021/10/20 03:40:24;;;;;;;;;;;;;;;;;;4844927;29;19932;-91
2021/10/20 03:42:53;;;;;;;;;;;;;;;;;;4861617;29;19928;-92
2021/10/20 03:45:22;;;;;;;;;;;;;;;;;;4875628;29;19916;-93
2021/10/20 03:47:50;;;;;;;;;;;;;;;;;;4873144;29;19942;-94
2021/10/20 03:50:18;;;;;;;;;;;;;;;;;;4851160;29;19928;-90
2021/10/20 03:52:47;;;;;;;;;;;;;;;;;;4849796;29;20399;-91
2021/10/20 03:55:15;;;;;;;;;;;;;;;;;;4838437;29;19928;-91
2021/10/20 03:57:45;;;;;;;;;;;;;;;;;;4844245;29;19935;-91
2021/10/20 04:00:14;;;;;;;;;;;;;;;;;;4860398;29;19935;-90
2021/10/20 04:02:44;;;;;;;;;;;;;;;;;;4840347;29;19928;-90
2021/10/20 04:05:13;;;;;;;;;;;;;;;;;;4855148;29;19929;-88
2021/10/20 04:07:41;;;;;;;;;;;;;;;;;;4857129;29;20087;-88
2021/10/20 04:10:11;;;;;;;;;;;;;;;;;;4845998;29;19932;-93
2021/10/20 04:12:40;;;;;;;;;;;;;;;;;;4851178;29;19939;-90
2021/10/20 04:15:10;;;;;;;;;;;;;;;;;;4837169;29;20300;-91
2021/10/20 04:17:39;;;;;;;;;;;;;;;;;;4845093;29;20383;-87
2021/10/20 04:20:08;;;;;;;;;;;;;;;;;;4838835;29;19932;-87
2021/10/20 04:22:36;;;;;;;;;;;;;;;;;;4844285;29;19935;-89
2021/10/20 04:25:05;;;;;;;;;;;;;;;;;;4860172;29;19936;-90
2021/10/20 04:27:34;;;;;;;;;;;;;;;;;;4848101;29;19928;-88
2021/10/20 04:30:03;;;;;;;;;;;;;;;;;;4840297;29;20319;-92
2021/10/20 04:32:33;;;;;;;;;;;;;;;;;;4836878;29;19939;-89
2021/10/20 04:35:01;;;;;;;;;;;;;;;;;;4842244;29;20405;-90
2021/10/20 04:37:29;;;;;;;;;;;;;;;;;;4843496;29;19928;-87
2021/10/20 04:39:59;;;;;;;;;;;;;;;;;;4839683;29;19928;-89
2021/10/20 04:42:27;;;;;;;;;;;;;;;;;;4841478;29;19935;-92
2021/10/20 04:44:56;;;;;;;;;;;;;;;;;;4850980;29;20314;-88
2021/10/20 04:47:24;;;;;;;;;;;;;;;;;;4846540;29;19935;-87
2021/10/20 04:49:54;;;;;;;;;;;;;;;;;;4839701;29;19935;-91
2021/10/20 04:52:24;;;;;;;;;;;;;;;;;;4843792;29;20219;-87
2021/10/20 04:54:52;;;;;;;;;;;;;;;;;;4848693;29;20315;-87
2021/10/20 04:57:21;;;;;;;;;;;;;;;;;;4843128;29;19928;-87
2021/10/20 04:59:49;;;;;;;;;;;;;;;;;;4856847;29;19939;-91
2021/10/20 05:02:17;;;;;;;;;;;;;;;;;;4844787;29;19936;-88
2021/10/20 05:04:46;;;;;;;;;;;;;;;;;;4843812;29;19928;-89
2021/10/20 05:07:16;;;;;;;;;;;;;;;;;;4863164;29;20388;-88
2021/10/20 05:09:45;;;;;;;;;;;;;;;;;;4843033;29;19928;-87
2021/10/20 05:12:13;;;;;;;;;;;;;;;;;;4840275;29;19929;-90
2021/10/20 05:14:41;;;;;;;;;;;;;;;;;;4835966;29;19928;-87
2021/10/20 05:17:10;;;;;;;;;;;;;;;;;;4844236;29;19928;-90
2021/10/20 05:19:38;;;;;;;;;;;;;;;;;;4844313;29;19928;-89
2021/10/20 05:22:07;;;;;;;;;;;;;;;;;;4855526;29;20221;-87
2021/10/20 05:24:38;;;;;;;;;;;;;;;;;;4847556;29;19932;-88
2021/10/20 05:27:06;;;;;;;;;;;;;;;;;;4837389;29;19928;-89
2021/10/20 05:29:35;;;;;;;;;;;;;;;;;;4849083;29;19951;-89
2021/10/20 05:32:04;;;;;;;;;;;;;;;;;;4848177;29;19935;-87
2021/10/20 05:34:32;;;;;;;;;;;;;;;;;;4840059;29;19932;-87
2021/10/20 05:37:00;;;;;;;;;;;;;;;;;;4836999;29;19928;-90
2021/10/20 05:39:29;;;;;;;;;;;;;;;;;;4857188;29;20307;-89
2021/10/20 05:41:59;;;;;;;;;;;;;;;;;;4825570;29;19951;-89
2021/10/20 05:44:27;;;;;;;;;;;;;;;;;;4845434;29;19928;-89
2021/10/20 05:46:56;;;;;;;;;;;;;;;;;;4844562;29;19935;-89
2021/10/20 05:49:24;;;;;;;;;;;;;;;;;;4846705;29;19935;-86
2021/10/20 05:51:52;;;;;;;;;;;;;;;;;;4842801;29;19932;-88
2021/10/20 05:54:21;;;;;;;;;;;;;;;;;;4843171;29;20210;-89
2021/10/20 05:56:49;;;;;;;;;;;;;;;;;;4874915;29;19955;-92
2021/10/20 05:59:22;;;;;;;;;;;;;;;;;;4848975;29;19939;-90
2021/10/20 06:01:50;;;;;;;;;;;;;;;;;;4849213;29;19928;-90
2021/10/20 06:04:19;;;;;;;;;;;;;;;;;;4848871;29;19936;-89
2021/10/20 06:06:48;;;;;;;;;;;;;;;;;;4842222;29;19916;-93
2021/10/20 06:09:16;;;;;;;;;;;;;;;;;;4880348;29;19926;-92
2021/10/20 06:11:44;;;;;;;;;;;;;;;;;;4865308;29;19935;-89
2021/10/20 06:14:12;;;;;;;;;;;;;;;;;;4849022;29;19935;-89
2021/10/20 06:16:42;;;;;;;;;;;;;;;;;;4849996;29;19928;-89
2021/10/20 06:19:10;;;;;;;;;;;;;;;;;;4865512;29;19934;-90
2021/10/20 06:21:39;;;;;;;;;;;;;;;;;;4870456;29;19934;-93
2021/10/20 06:24:07;;;;;;;;;;;;;;;;;;4884257;29;20314;-90
2021/10/20 06:26:35;;;;;;;;;;;;;;;;;;4871166;29;19928;-90
2021/10/20 06:29:05;;;;;;;;;;;;;;;;;;4872084;29;19934;-92
2021/10/20 06:31:33;;;;;;;;;;;;;;;;;;4860359;29;19932;-88
2021/10/20 06:34:03;;;;;;;;;;;;;;;;;;4860522;29;19927;-89
2021/10/20 06:36:32;;;;;;;;;;;;;;;;;;4862305;29;19932;-90
2021/10/20 06:39:01;;;;;;;;;;;;;;;;;;4845328;29;20332;-89
2021/10/20 06:41:29;;;;;;;;;;;;;;;;;;4830048;29;19936;-88
2021/10/20 06:43:57;;;;;;;;;;;;;;;;;;4845542;29;19935;-89
2021/10/20 06:46:26;;;;;;;;;;;;;;;;;;4853177;29;19935;-89
2021/10/20 06:48:54;;;;;;;;;;;;;;;;;;4864522;29;19928;-88
2021/10/20 06:51:24;;;;;;;;;;;;;;;;;;4849578;29;20089;-90
2021/10/20 06:53:52;;;;;;;;;;;;;;;;;;4848227;29;20395;-88
2021/10/20 06:56:25;;;;;;;;;;;;;;;;;;4848175;29;19932;-89
2021/10/20 06:58:53;;;;;;;;;;;;;;;;;;4848393;29;19935;-92
2021/10/20 07:01:21;;;;;;;;;;;;;;;;;;4841619;29;19940;-92
2021/10/20 07:03:50;;;;;;;;;;;;;;;;;;4841256;29;19928;-87
2021/10/20 07:06:18;;;;;;;;;;;;;;;;;;4862106;29;20399;-87
2021/10/20 07:08:48;;;;;;;;;;;;;;;;;;4846627;29;19935;-87
2021/10/20 07:11:16;;;;;;;;;;;;;;;;;;4845534;29;19928;-90
2021/10/20 07:13:44;;;;;;;;;;;;;;;;;;4845799;29;19932;-92
2021/10/20 07:16:13;;;;;;;;;;;;;;;;;;4860041;29;20323;-87
2021/10/20 07:18:42;;;;;;;;;;;;;;;;;;4856445;29;19951;-89
2021/10/20 07:21:10;;;;;;;;;;;;;;;;;;4843563;29;20303;-91
2021/10/20 07:23:38;;;;;;;;;;;;;;;;;;4842891;29;19935;-92
2021/10/20 07:26:08;;;;;;;;;;;;;;;;;;4844741;29;19928;-89
2021/10/20 07:28:37;;;;;;;;;;;;;;;;;;4844291;29;19932;-88
2021/10/20 07:31:05;;;;;;;;;;;;;;;;;;4845288;29;20294;-87
2021/10/20 07:33:34;;;;;;;;;;;;;;;;;;4857293;29;20426;-89
2021/10/20 07:36:03;;;;;;;;;;;;;;;;;;4848906;29;20407;-86
2021/10/20 07:38:31;;;;;;;;;;;;;;;;;;4859348;29;19937;-86
2021/10/20 07:40:59;;;;;;;;;;;;;;;;;;4841216;29;19935;-88
2021/10/20 07:43:30;;;;;;;;;;;;;;;;;;4843244;29;19928;-88
2021/10/20 07:45:58;;;;;;;;;;;;;;;;;;4844228;29;19932;-87
2021/10/20 07:48:26;;;;;;;;;;;;;;;;;;4860702;29;19937;-88
2021/10/20 07:50:55;;;;;;;;;;;;;;;;;;4839825;29;19939;-89
2021/10/20 07:53:23;;;;;;;;;;;;;;;;;;4841620;29;19983;-90
2021/10/20 07:55:52;;;;;;;;;;;;;;;;;;4842587;29;19951;-89
2021/10/20 07:58:20;;;;;;;;;;;;;;;;;;4841493;29;19928;-89
2021/10/20 08:00:50;;;;;;;;;;;;;;;;;;4854380;29;20078;-90
2021/10/20 08:03:19;;;;;;;;;;;;;;;;;;4856643;29;19928;-88
2021/10/20 08:05:47;;;;;;;;;;;;;;;;;;4854491;29;20118;-89
2021/10/20 08:08:15;;;;;;;;;;;;;;;;;;4856503;29;19939;-90
2021/10/20 08:10:43;;;;;;;;;;;;;;;;;;4868406;29;19935;-90
2021/10/20 08:13:12;;;;;;;;;;;;;;;;;;4835416;29;19987;-90
2021/10/20 08:15:42;;;;;;;;;;;;;;;;;;4840482;29;19935;-90
2021/10/20 08:18:11;;;;;;;;;;;;;;;;;;4836454;29;19943;-89
2021/10/20 08:20:40;;;;;;;;;;;;;;;;;;4839390;29;19929;-89
2021/10/20 08:23:08;;;;;;;;;;;;;;;;;;4840964;29;20410;-89
2021/10/20 08:25:37;;;;;;;;;;;;;;;;;;4850538;29;19929;-89
2021/10/20 08:28:06;;;;;;;;;;;;;;;;;;4851144;29;19947;-89
2021/10/20 08:30:35;;;;;;;;;;;;;;;;;;4844577;29;19917;-92
2021/10/20 08:33:03;;;;;;;;;;;;;;;;;;4878031;29;19916;-90
2021/10/20 08:35:33;;;;;;;;;;;;;;;;;;4872362;29;19954;-87
2021/10/20 08:38:03;;;;;;;;;;;;;;;;;;4844225;29;19928;-87
2021/10/20 08:40:34;;;;;;;;;;;;;;;;;;4840514;29;20330;-87
2021/10/20 08:43:02;;;;;;;;;;;;;;;;;;4853168;29;19928;-91
2021/10/20 08:45:31;;;;;;;;;;;;;;;;;;4836366;29;19928;-89
2021/10/20 08:47:59;;;;;;;;;;;;;;;;;;4861804;29;19928;-87
2021/10/20 08:50:28;;;;;;;;;;;;;;;;;;4837356;29;19936;-89
2021/10/20 08:52:58;;;;;;;;;;;;;;;;;;4839006;29;20391;-90
2021/10/20 08:55:27;;;;;;;;;;;;;;;;;;4838782;29;19937;-87
2021/10/20 08:57:55;;;;;;;;;;;;;;;;;;4853673;29;19928;-87
2021/10/20 09:00:24;;;;;;;;;;;;;;;;;;4835993;29;19928;-89
2021/10/20 09:02:52;;;;;;;;;;;;;;;;;;4838721;29;19928;-88
2021/10/20 09:05:21;;;;;;;;;;;;;;;;;;4854795;29;20566;-89
2021/10/20 09:07:51;;;;;;;;;;;;;;;;;;4840339;29;20731;-90
2021/10/20 09:10:20;;;;;;;;;;;;;;;;;;4838567;29;20391;-88
2021/10/20 09:12:49;;;;;;;;;;;;;;;;;;4854319;29;19936;-89
2021/10/20 09:15:19;;;;;;;;;;;;;;;;;;4850953;29;19928;-90
2021/10/20 09:17:49;;;;;;;;;;;;;;;;;;4861235;29;19928;-89
2021/10/20 09:20:22;;;;;;;;;;;;;;;;;;4839555;29;19932;-89
2021/10/20 09:22:56;;;;;;;;;;;;;;;;;;4870681;29;19936;-86
2021/10/20 09:25:26;;;;;;;;;;;;;;;;;;4836776;29;20509;-85
2021/10/20 09:27:54;;;;;;;;;;;;;;;;;;4857338;29;19935;-88
2021/10/20 09:30:23;;;;;;;;;;;;;;;;;;4841979;29;20462;-91
2021/10/20 09:32:51;;;;;;;;;;;;;;;;;;4842025;29;19928;-89
2021/10/20 09:35:20;;;;;;;;;;;;;;;;;;4838400;29;19928;-87
2021/10/20 09:37:48;;;;;;;;;;;;;;;;;;4841956;29;20387;-89
2021/10/20 09:40:16;;;;;;;;;;;;;;;;;;4838437;29;19928;-90
2021/10/20 09:42:47;;;;;;;;;;;;;;;;;;4839574;29;19928;-88
2021/10/20 09:45:15;;;;;;;;;;;;;;;;;;4848905;29;20329;-87
2021/10/20 09:47:44;;;;;;;;;;;;;;;;;;4836569;29;19928;-86
2021/10/20 09:50:21;;;;;;;;;;;;;;;;;;4835747;29;19929;-87
2021/10/20 09:52:51;;;;;;;;;;;;;;;;;;4838901;29;20422;-86
2021/10/20 09:55:24;;;;;;;;;;;;;;;;;;4840178;29;19934;-88
2021/10/20 09:57:56;;;;;;;;;;;;;;;;;;4837719;29;19929;-86
2021/10/20 10:00:25;;;;;;;;;;;;;;;;;;4842056;29;19928;-85
2021/10/20 10:02:53;;;;;;;;;;;;;;;;;;4849727;29;19936;-84
2021/10/20 10:05:22;;;;;;;;;;;;;;;;;;4854738;29;19935;-81
2021/10/20 10:07:50;;;;;;;;;;;;;;;;;;4843903;29;19936;-85
2021/10/20 10:10:19;;;;;;;;;;;;;;;;;;4841886;29;19932;-83
2021/10/20 10:12:47;;;;;;;;;;;;;;;;;;4843484;29;19939;-87
2021/10/20 10:15:18;;;;;;;;;;;;;;;;;;4861218;29;19929;-87
2021/10/20 10:17:53;;;;;;;;;;;;;;;;;;4853791;29;19932;-88
2021/10/20 10:20:21;;;;;;;;;;;;;;;;;;4855260;29;20125;-86
2021/10/20 10:22:50;;;;;;;;;;;;;;;;;;4865618;29;19936;-87
2021/10/20 10:25:22;;;;;;;;;;;;;;;;;;4862490;29;19928;-86
2021/10/20 10:28:00;;;;;;;;;;;;;;;;;;4880128;29;19932;-85
2021/10/20 10:30:30;;;;;;;;;;;;;;;;;;4859251;29;19935;-86
2021/10/20 10:32:58;;;;;;;;;;;;;;;;;;4835196;29;19940;-84
2021/10/20 10:35:27;;;;;;;;;;;;;;;;;;4836126;29;19928;-83
2021/10/20 10:38:02;;;;;;;;;;;;;;;;;;4853607;29;19928;-82
2021/10/20 10:40:32;;;;;;;;;;;;;;;;;;4835498;29;19932;-85
2021/10/20 10:43:02;;;;;;;;;;;;;;;;;;4836181;29;19935;-85
2021/10/20 10:45:31;;;;;;;;;;;;;;;;;;4852581;29;20152;-87
2021/10/20 10:48:00;;;;;;;;;;;;;;;;;;4846659;29;19935;-84
2021/10/20 10:50:39;;;;;;;;;;;;;;;;;;4834892;29;20134;-86
2021/10/20 10:53:07;;;;;;;;;;;;;;;;;;4835903;29;19928;-86
2021/10/20 10:55:36;;;;;;;;;;;;;;;;;;4857282;29;19924;-87
2021/10/20 10:58:06;;;;;;;;;;;;;;;;;;4865395;29;19923;-84
2021/10/20 11:00:46;;;;;;;;;;;;;;;;;;4845462;29;19935;-85
2021/10/20 11:03:26;;;;;;;;;;;;;;;;;;4869129;29;19928;-84
2021/10/20 11:05:57;;;;;;;;;;;;;;;;;;4863081;29;19934;-84
2021/10/20 11:08:26;;;;;;;;;;;;;;;;;;4846945;29;19957;-84
2021/10/20 11:10:54;;;;;;;;;;;;;;;;;;4842795;29;19928;-82
2021/10/20 11:13:22;;;;;;;;;;;;;;;;;;4841402;29;19932;-84
2021/10/20 11:15:52;;;;;;;;;;;;;;;;;;4839849;29;19955;-87
2021/10/20 11:18:24;;;;;;;;;;;;;;;;;;4855197;29;20131;-83
2021/10/20 11:21:18;;;;;;;;;;;;;;;;;;4858397;29;19936;-83
2021/10/20 11:23:46;;;;;;;;;;;;;;;;;;4840865;29;19948;-83
2021/10/20 11:26:15;;;;;;;;;;;;;;;;;;4843759;29;19947;-84
2021/10/20 11:28:44;;;;;;;;;;;;;;;;;;4838612;29;19928;-82
2021/10/20 11:31:13;;;;;;;;;;;;;;;;;;4844444;29;19932;-81
2021/10/20 11:33:43;;;;;;;;;;;;;;;;;;4856673;29;20011;-84
2021/10/20 11:36:18;;;;;;;;;;;;;;;;;;4860061;29;19932;-83
2021/10/20 11:38:47;;;;;;;;;;;;;;;;;;4841821;29;19928;-83
2021/10/20 11:41:18;;;;;;;;;;;;;;;;;;4842894;29;20225;-82
2021/10/20 11:43:46;;;;;;;;;;;;;;;;;;4858281;29;19929;-83
2021/10/20 11:46:19;;;;;;;;;;;;;;;;;;4841363;29;19930;-82
2021/10/20 11:48:48;;;;;;;;;;;;;;;;;;4840867;29;19932;-82
2021/10/20 11:51:18;;;;;;;;;;;;;;;;;;4858951;29;19932;-83
2021/10/20 11:53:48;;;;;;;;;;;;;;;;;;4853546;29;19955;-83
2021/10/20 11:56:17;;;;;;;;;;;;;;;;;;4857343;29;20391;-85
2021/10/20 11:58:46;;;;;;;;;;;;;;;;;;4862177;29;20311;-81
2021/10/20 12:01:15;;;;;;;;;;;;;;;;;;4845701;29;19928;-85
2021/10/20 12:03:46;;;;;;;;;;;;;;;;;;4846535;29;19935;-83
2021/10/20 12:06:18;;;;;;;;;;;;;;;;;;4853865;29;19928;-85
2021/10/20 12:08:47;;;;;;;;;;;;;;;;;;4844418;29;19928;-82
2021/10/20 12:11:16;;;;;;;;;;;;;;;;;;4854638;29;19951;-85
2021/10/20 12:13:45;;;;;;;;;;;;;;;;;;4854114;29;19946;-86
2021/10/20 12:16:15;;;;;;;;;;;;;;;;;;4844664;29;19928;-85
2021/10/20 12:18:46;;;;;;;;;;;;;;;;;;4859904;29;19935;-81
2021/10/20 12:21:15;;;;;;;;;;;;;;;;;;4843484;29;19935;-82
2021/10/20 12:23:44;;;;;;;;;;;;;;;;;;4845406;29;19928;-84
2021/10/20 12:26:12;;;;;;;;;;;;;;;;;;4848970;29;19928;-84
2021/10/20 12:28:41;;;;;;;;;;;;;;;;;;4844322;29;19939;-82
2021/10/20 12:31:09;;;;;;;;;;;;;;;;;;4842574;29;19927;-86
2021/10/20 12:33:39;;;;;;;;;;;;;;;;;;4840435;29;19935;-85
2021/10/20 12:36:08;;;;;;;;;;;;;;;;;;4841905;29;19936;-84
2021/10/20 12:38:38;;;;;;;;;;;;;;;;;;4852883;29;19929;-86
2021/10/20 12:41:08;;;;;;;;;;;;;;;;;;4842304;29;19928;-86
2021/10/20 12:43:37;;;;;;;;;;;;;;;;;;4839246;29;19956;-88
2021/10/20 12:46:28;;;;;;;;;;;;;;;;;;4846214;29;20262;-84
2021/10/20 12:48:57;;;;;;;;;;;;;;;;;;4842946;29;19928;-82
2021/10/20 12:51:28;;;;;;;;;;;;;;;;;;4841548;29;19936;-86
2021/10/20 12:53:58;;;;;;;;;;;;;;;;;;4839561;29;19928;-86
2021/10/20 12:56:27;;;;;;;;;;;;;;;;;;4849984;29;19929;-85
2021/10/20 12:59:05;;;;;;;;;;;;;;;;;;4843270;29;19932;-85
2021/10/20 13:01:34;;;;;;;;;;;;;;;;;;4842409;29;19935;-85
2021/10/20 13:04:05;;;;;;;;;;;;;;;;;;4831378;29;19935;-85
2021/10/20 13:06:35;;;;;;;;;;;;;;;;;;4846427;29;19939;-88
2021/10/20 13:09:04;;;;;;;;;;;;;;;;;;4839687;29;19928;-88
2021/10/20 13:11:33;;;;;;;;;;;;;;;;;;4848112;29;19932;-88
2021/10/20 13:14:02;;;;;;;;;;;;;;;;;;4841469;29;19932;-85
2021/10/20 13:16:30;;;;;;;;;;;;;;;;;;4845996;29;19937;-88
2021/10/20 13:18:59;;;;;;;;;;;;;;;;;;4854580;29;19916;-93
2021/10/20 13:21:28;;;;;;;;;;;;;;;;;;4863886;29;19912;-92
2021/10/20 13:23:58;;;;;;;;;;;;;;;;;;4864179;29;19954;-86
2021/10/20 13:26:26;;;;;;;;;;;;;;;;;;4846849;29;19928;-87
2021/10/20 13:28:55;;;;;;;;;;;;;;;;;;4842602;29;19939;-87
2021/10/20 13:31:23;;;;;;;;;;;;;;;;;;4839141;29;19928;-89
2021/10/20 13:33:52;;;;;;;;;;;;;;;;;;4842563;29;19928;-86
2021/10/20 13:36:20;;;;;;;;;;;;;;;;;;4873100;29;19932;-84
2021/10/20 13:38:49;;;;;;;;;;;;;;;;;;4850208;29;19932;-86
2021/10/20 13:41:23;;;;;;;;;;;;;;;;;;4843666;29;19951;-86
2021/10/20 13:43:51;;;;;;;;;;;;;;;;;;4849759;29;19928;-85
2021/10/20 13:46:19;;;;;;;;;;;;;;;;;;4839809;29;19928;-86
2021/10/20 13:48:47;;;;;;;;;;;;;;;;;;4841060;29;19928;-84
2021/10/20 13:51:16;;;;;;;;;;;;;;;;;;4839213;29;19928;-84
2021/10/20 13:53:44;;;;;;;;;;;;;;;;;;4841285;29;19928;-88
2021/10/20 13:56:13;;;;;;;;;;;;;;;;;;4835426;29;19964;-87
2021/10/20 13:58:43;;;;;;;;;;;;;;;;;;4843943;29;19935;-86
2021/10/20 14:01:11;;;;;;;;;;;;;;;;;;4841002;29;19928;-86
2021/10/20 14:03:40;;;;;;;;;;;;;;;;;;4844643;29;19928;-86
2021/10/20 14:06:10;;;;;;;;;;;;;;;;;;4856935;29;19936;-87
2021/10/20 14:08:39;;;;;;;;;;;;;;;;;;4839776;29;19936;-87
2021/10/20 14:11:07;;;;;;;;;;;;;;;;;;4845535;29;19928;-88
2021/10/20 14:13:36;;;;;;;;;;;;;;;;;;4843106;29;19935;-89
2021/10/20 14:16:05;;;;;;;;;;;;;;;;;;4860006;29;19928;-90
2021/10/20 14:18:34;;;;;;;;;;;;;;;;;;4864293;29;19913;-90
2021/10/20 14:21:04;;;;;;;;;;;;;;;;;;4883652;29;20119;-92
2021/10/20 14:23:32;;;;;;;;;;;;;;;;;;4868120;29;19912;-91
2021/10/20 14:26:00;;;;;;;;;;;;;;;;;;4870303;29;19935;-91
2021/10/20 14:28:28;;;;;;;;;;;;;;;;;;4875976;29;19942;-85
2021/10/20 14:30:57;;;;;;;;;;;;;;;;;;4841516;29;19932;-85
2021/10/20 14:33:27;;;;;;;;;;;;;;;;;;4841414;29;19935;-92
2021/10/20 14:35:55;;;;;;;;;;;;;;;;;;4841120;29;19935;-85
2021/10/20 14:38:24;;;;;;;;;;;;;;;;;;4854807;29;19932;-89
2021/10/20 14:41:07;;;;;;;;;;;;;;;;;;4835611;29;20455;-85
2021/10/20 14:43:36;;;;;;;;;;;;;;;;;;4869809;29;19929;-89
2021/10/20 14:46:04;;;;;;;;;;;;;;;;;;4843482;29;19939;-89
2021/10/20 14:48:33;;;;;;;;;;;;;;;;;;4843292;29;19929;-88
2021/10/20 14:51:02;;;;;;;;;;;;;;;;;;4842291;29;19928;-88
2021/10/20 14:53:30;;;;;;;;;;;;;;;;;;4840747;29;19937;-88
2021/10/20 14:55:58;;;;;;;;;;;;;;;;;;4842623;29;19928;-87
2021/10/20 14:58:27;;;;;;;;;;;;;;;;;;4844726;29;19928;-86
2021/10/20 15:00:58;;;;;;;;;;;;;;;;;;4833443;29;19928;-89
2021/10/20 15:03:26;;;;;;;;;;;;;;;;;;4850263;29;19932;-90
2021/10/20 15:05:56;;;;;;;;;;;;;;;;;;4839733;29;19933;-83
2021/10/20 15:08:25;;;;;;;;;;;;;;;;;;4840798;29;20446;-87
2021/10/20 15:10:55;;;;;;;;;;;;;;;;;;4837575;29;19928;-87
2021/10/20 15:13:26;;;;;;;;;;;;;;;;;;4841733;29;19954;-88
2021/10/20 15:15:54;;;;;;;;;;;;;;;;;;4858240;29;19929;-88
2021/10/20 15:18:27;;;;;;;;;;;;;;;;;;4848256;29;19928;-90
2021/10/20 15:21:06;;;;;;;;;;;;;;;;;;4847258;29;19932;-89
2021/10/20 15:23:36;;;;;;;;;;;;;;;;;;4834698;29;19940;-89
2021/10/20 15:26:08;;;;;;;;;;;;;;;;;;4832199;29;19928;-86
2021/10/20 15:28:36;;;;;;;;;;;;;;;;;;4846715;29;19932;-89
2021/10/20 15:31:05;;;;;;;;;;;;;;;;;;4837583;29;19939;-86
2021/10/20 15:33:33;;;;;;;;;;;;;;;;;;4837685;29;19928;-90
2021/10/20 15:36:03;;;;;;;;;;;;;;;;;;4848117;29;19932;-87
2021/10/20 15:38:31;;;;;;;;;;;;;;;;;;4860263;29;20414;-89
2021/10/20 15:41:02;;;;;;;;;;;;;;;;;;4840153;29;19928;-88
2021/10/20 15:43:31;;;;;;;;;;;;;;;;;;4871790;29;19922;-90
2021/10/20 15:45:59;;;;;;;;;;;;;;;;;;4859672;29;19931;-86
2021/10/20 15:48:29;;;;;;;;;;;;;;;;;;4839341;29;20773;-86
2021/10/20 15:50:58;;;;;;;;;;;;;;;;;;4837631;29;19936;-88
2021/10/20 15:53:27;;;;;;;;;;;;;;;;;;4844752;29;19927;-87
2021/10/20 15:55:56;;;;;;;;;;;;;;;;;;4845605;29;19939;-85
2021/10/20 15:58:26;;;;;;;;;;;;;;;;;;4844476;29;19939;-88
2021/10/20 16:00:55;;;;;;;;;;;;;;;;;;4857584;29;19928;-86
2021/10/20 16:03:24;;;;;;;;;;;;;;;;;;4852759;29;19928;-87
2021/10/20 16:05:53;;;;;;;;;;;;;;;;;;4866052;29;19928;-89
2021/10/20 16:08:22;;;;;;;;;;;;;;;;;;4843487;29;19928;-88
2021/10/20 16:10:50;;;;;;;;;;;;;;;;;;4841828;29;19936;-86
2021/10/20 16:13:19;;;;;;;;;;;;;;;;;;4841100;29;19935;-90
2021/10/20 16:15:49;;;;;;;;;;;;;;;;;;4844911;29;19940;-90
2021/10/20 16:18:17;;;;;;;;;;;;;;;;;;4833677;29;19928;-89
2021/10/20 16:20:47;;;;;;;;;;;;;;;;;;4846594;29;19932;-88
2021/10/20 16:23:15;;;;;;;;;;;;;;;;;;4862897;29;20302;-85
2021/10/20 16:25:44;;;;;;;;;;;;;;;;;;4842769;29;20319;-87
2021/10/20 16:28:12;;;;;;;;;;;;;;;;;;4853240;29;20003;-86
2021/10/20 16:30:41;;;;;;;;;;;;;;;;;;4845832;29;19928;-86
2021/10/20 16:33:11;;;;;;;;;;;;;;;;;;4853363;29;20415;-88
2021/10/20 16:35:40;;;;;;;;;;;;;;;;;;4859053;29;19932;-87
2021/10/20 16:38:09;;;;;;;;;;;;;;;;;;4847892;29;19928;-86
2021/10/20 16:40:40;;;;;;;;;;;;;;;;;;4862702;29;22137;-90
2021/10/20 16:43:08;;;;;;;;;;;;;;;;;;4846121;29;20367;-88
2021/10/20 16:45:37;;;;;;;;;;;;;;;;;;4847560;29;19932;-86
2021/10/20 16:48:06;;;;;;;;;;;;;;;;;;4838974;29;19929;-88
2021/10/20 16:50:37;;;;;;;;;;;;;;;;;;4838743;29;20307;-87
2021/10/20 16:53:06;;;;;;;;;;;;;;;;;;4848391;29;19934;-89
2021/10/20 16:55:35;;;;;;;;;;;;;;;;;;4851549;29;19935;-89
2021/10/20 16:58:04;;;;;;;;;;;;;;;;;;4844052;29;19935;-89
2021/10/20 17:00:32;;;;;;;;;;;;;;;;;;4842435;29;19928;-89